createdAt,value
2022-08-17T00:02:18.102Z,4.53
2022-08-17T00:05:33.924Z,4.10
2022-08-17T00:08:40.052Z,4.32
2022-08-17T00:11:43.887Z,5.18
2022-08-17T00:15:10.359Z,4.22
2022-08-17T00:18:56.716Z,4.22
2022-08-17T00:22:14.780Z,3.97
2022-08-17T00:25:00.572Z,4.30
2022-08-17T00:28:06.193Z,4.88
2022-08-17T00:31:10.319Z,3.75
2022-08-17T00:34:12.469Z,4.30
2022-08-17T00:37:14.572Z,4.57
2022-08-17T00:40:19.819Z,4.68
2022-08-17T00:43:45.775Z,4.40
2022-08-17T00:46:48.160Z,4.90
2022-08-17T00:49:50.392Z,3.95
2022-08-17T00:52:56.457Z,4.93
2022-08-17T00:56:01.804Z,4.65
2022-08-17T00:59:07.811Z,4.45
2022-08-17T01:02:12.648Z,4.20
2022-08-17T01:05:23.601Z,4.57
2022-08-17T01:08:29.634Z,4.72
2022-08-17T01:11:33.138Z,4.40
2022-08-17T01:14:35.322Z,3.80
2022-08-17T01:17:37.483Z,4.47
2022-08-17T01:20:48.211Z,4.47
2022-08-17T01:23:50.939Z,3.88
2022-08-17T01:26:53.111Z,4.88
2022-08-17T01:30:02.810Z,5.15
2022-08-17T01:33:05.793Z,4.05
2022-08-17T01:36:08.563Z,4.63
2022-08-17T01:39:24.657Z,5.28
2022-08-17T01:42:26.619Z,4.50
2022-08-17T01:45:33.152Z,4.22
2022-08-17T01:48:39.105Z,4.68
2022-08-17T01:51:41.851Z,4.50
2022-08-17T01:54:47.203Z,4.28
2022-08-17T01:57:49.233Z,4.68
2022-08-17T02:01:00.677Z,4.20
2022-08-17T02:04:05.214Z,3.97
2022-08-17T02:07:07.223Z,4.25
2022-08-17T02:10:18.989Z,3.95
2022-08-17T02:13:22.704Z,4.65
2022-08-17T02:16:24.936Z,4.32
2022-08-17T02:19:27.006Z,3.63
2022-08-17T02:22:29.230Z,3.95
2022-08-17T02:25:33.734Z,4.50
2022-08-17T02:28:35.916Z,4.30
2022-08-17T02:31:38.039Z,4.15
2022-08-17T02:34:40.036Z,4.10
2022-08-17T02:37:44.771Z,4.38
2022-08-17T02:40:53.817Z,4.93
2022-08-17T02:43:55.872Z,4.72
2022-08-17T02:46:57.936Z,4.85
2022-08-17T02:50:00.029Z,4.50
2022-08-17T02:53:02.916Z,3.90
2022-08-17T02:56:07.131Z,4.43
2022-08-17T02:59:09.303Z,4.88
2022-08-17T03:02:12.213Z,4.65
2022-08-17T03:05:17.076Z,5.13
2022-08-17T03:08:20.121Z,4.40
2022-08-17T03:11:22.514Z,4.50
2022-08-17T03:14:26.183Z,4.78
2022-08-17T03:17:28.771Z,5.03
2022-08-17T03:20:32.777Z,6.03
2022-08-17T03:23:41.167Z,5.15
2022-08-17T03:26:44.184Z,5.25
2022-08-17T03:29:46.325Z,5.45
2022-08-17T03:32:50.864Z,5.28
2022-08-17T03:35:52.933Z,4.85
2022-08-17T03:38:54.991Z,4.70
2022-08-17T03:42:32.278Z,4.60
2022-08-17T03:45:54.672Z,4.72
2022-08-17T03:49:15.536Z,4.32
2022-08-17T03:52:36.206Z,4.25
2022-08-17T03:55:58.091Z,5.63
2022-08-17T03:59:00.140Z,3.95
2022-08-17T04:02:24.540Z,5.32
2022-08-17T04:05:26.649Z,4.15
2022-08-17T04:08:29.721Z,5.28
2022-08-17T04:11:32.436Z,5.30
2022-08-17T04:14:52.254Z,5.05
2022-08-17T04:17:57.028Z,5.22
2022-08-17T04:20:59.272Z,5.53
2022-08-17T04:24:02.881Z,6.30
2022-08-17T04:27:05.095Z,5.68
2022-08-17T04:30:07.849Z,5.28
2022-08-17T04:33:14.051Z,4.72
2022-08-17T04:36:16.539Z,5.80
2022-08-17T04:39:18.506Z,6.43
2022-08-17T04:42:20.558Z,5.82
2022-08-17T04:45:22.676Z,5.07
2022-08-17T04:48:29.647Z,5.00
2022-08-17T04:51:45.506Z,6.07
2022-08-17T04:54:57.008Z,4.85
2022-08-17T04:57:58.999Z,5.53
2022-08-17T05:01:01.764Z,5.90
2022-08-17T05:04:21.365Z,6.13
2022-08-17T05:07:33.208Z,6.50
2022-08-17T05:10:39.119Z,6.20
2022-08-17T05:13:50.387Z,5.68
2022-08-17T05:16:52.519Z,7.20
2022-08-17T05:19:54.765Z,5.93
2022-08-17T05:23:04.701Z,6.88
2022-08-17T05:26:07.897Z,5.97
2022-08-17T05:29:13.863Z,5.32
2022-08-17T05:32:38.734Z,6.03
2022-08-17T05:35:44.140Z,6.15
2022-08-17T05:38:46.202Z,6.10
2022-08-17T05:41:48.462Z,6.95
2022-08-17T05:44:50.540Z,6.25
2022-08-17T05:47:52.534Z,6.00
2022-08-17T05:51:09.606Z,6.47
2022-08-17T05:54:33.530Z,6.20
2022-08-17T05:58:08.829Z,5.57
2022-08-17T06:01:33.621Z,5.60
2022-08-17T06:05:20.129Z,6.10
2022-08-17T06:08:48.391Z,5.93
2022-08-17T06:12:03.751Z,6.32
2022-08-17T06:15:14.523Z,5.20
2022-08-17T06:18:19.221Z,6.85
2022-08-17T06:21:30.534Z,5.55
2022-08-17T06:24:37.004Z,5.85
2022-08-17T06:27:53.699Z,6.15
2022-08-17T06:31:03.866Z,5.68
2022-08-17T06:34:10.744Z,5.97
2022-08-17T06:37:34.192Z,5.40
2022-08-17T06:40:45.720Z,4.90
2022-08-17T06:43:56.859Z,4.53
2022-08-17T06:47:09.102Z,5.70
2022-08-17T06:50:17.237Z,4.93
2022-08-17T06:53:28.455Z,4.57
2022-08-17T06:56:54.446Z,4.65
2022-08-17T07:00:02.386Z,4.20
2022-08-17T07:03:10.608Z,4.30
2022-08-17T07:06:22.407Z,4.70
2022-08-17T07:09:35.941Z,4.53
2022-08-17T07:12:43.429Z,4.45
2022-08-17T07:15:51.794Z,4.10
2022-08-17T07:18:59.075Z,4.35
2022-08-17T07:22:55.251Z,4.07
2022-08-17T07:26:08.226Z,4.88
2022-08-17T07:29:14.206Z,4.07
2022-08-17T07:32:20.262Z,5.15
2022-08-17T07:35:40.684Z,4.97
2022-08-17T07:38:57.989Z,3.85
2022-08-17T07:42:05.112Z,2.58
2022-08-17T07:45:28.228Z,3.42
2022-08-17T07:48:36.145Z,3.22
2022-08-17T07:51:41.125Z,3.40
2022-08-17T07:54:43.257Z,3.83
2022-08-17T07:57:56.193Z,4.13
2022-08-17T08:01:09.391Z,3.88
2022-08-17T08:04:59.027Z,4.10
2022-08-17T08:07:59.429Z,4.25
2022-08-17T08:11:11.162Z,3.67
2022-08-17T08:14:29.693Z,4.20
2022-08-17T08:17:36.776Z,4.85
2022-08-17T08:20:54.189Z,5.32
2022-08-17T08:23:59.354Z,5.85
2022-08-17T08:27:16.085Z,4.95
2022-08-17T08:30:21.639Z,4.68
2022-08-17T08:33:37.037Z,5.57
2022-08-17T08:37:15.892Z,6.05
2022-08-17T08:40:25.046Z,6.15
2022-08-17T08:43:29.934Z,7.70
2022-08-17T08:46:40.784Z,8.00
2022-08-17T08:50:37.377Z,5.20
2022-08-17T08:54:11.436Z,6.47
2022-08-17T08:57:34.013Z,6.50
2022-08-17T09:00:44.206Z,6.18
2022-08-17T09:04:17.897Z,6.53
2022-08-17T09:07:58.836Z,6.60
2022-08-17T09:11:03.837Z,6.57
2022-08-17T09:14:21.495Z,7.13
2022-08-17T09:17:38.380Z,6.43
2022-08-17T09:20:48.066Z,8.05
2022-08-17T09:24:15.524Z,7.32
2022-08-17T09:27:38.405Z,6.20
2022-08-17T09:30:52.465Z,8.02
2022-08-17T09:33:58.772Z,6.05
2022-08-17T09:37:28.465Z,7.25
2022-08-17T09:40:48.986Z,8.00
2022-08-17T09:43:57.207Z,6.88
2022-08-17T09:47:14.465Z,7.90
2022-08-17T09:51:03.984Z,7.53
2022-08-17T09:53:50.687Z,6.75
2022-08-17T09:57:28.670Z,7.45
2022-08-17T10:00:37.096Z,5.95
2022-08-17T10:04:07.563Z,6.38
2022-08-17T10:07:34.760Z,6.78
2022-08-17T10:10:56.494Z,7.00
2022-08-17T10:14:36.228Z,6.20
2022-08-17T10:18:04.129Z,5.30
2022-08-17T10:21:34.226Z,5.25
2022-08-17T10:25:23.121Z,6.07
2022-08-17T10:28:33.418Z,6.32
2022-08-17T10:31:45.628Z,6.30
2022-08-17T10:35:25.803Z,4.85
2022-08-17T10:38:58.702Z,4.28
2022-08-17T10:42:16.567Z,5.82
2022-08-17T10:46:10.469Z,7.32
2022-08-17T10:49:29.807Z,5.15
2022-08-17T10:52:31.831Z,6.05
2022-08-17T10:55:33.925Z,5.65
2022-08-17T10:58:45.782Z,5.18
2022-08-17T11:02:12.456Z,5.30
2022-08-17T11:05:44.063Z,6.47
2022-08-17T11:08:58.861Z,6.10
2022-08-17T11:12:15.811Z,5.65
2022-08-17T11:15:26.688Z,6.55
2022-08-17T11:19:11.105Z,5.57
2022-08-17T11:22:40.769Z,5.60
2022-08-17T11:25:49.833Z,5.13
2022-08-17T11:29:00.220Z,6.35
2022-08-17T11:32:06.652Z,5.57
2022-08-17T11:35:22.362Z,6.30
2022-08-17T11:39:07.061Z,5.68
2022-08-17T11:42:50.714Z,6.47
2022-08-17T11:45:52.721Z,4.90
2022-08-17T11:49:23.299Z,5.35
2022-08-17T11:52:47.190Z,5.05
2022-08-17T11:55:52.124Z,6.22
2022-08-17T11:58:54.457Z,5.93
2022-08-17T12:01:57.286Z,6.00
2022-08-17T12:05:14.422Z,5.80
2022-08-17T12:08:22.008Z,4.07
2022-08-17T12:11:55.383Z,5.25
2022-08-17T12:15:19.258Z,4.55
2022-08-17T12:18:35.766Z,4.78
2022-08-17T12:21:50.642Z,5.43
2022-08-17T12:25:31.540Z,5.05
2022-08-17T12:28:38.907Z,5.38
2022-08-17T12:31:45.766Z,4.78
2022-08-17T12:34:49.831Z,3.80
2022-08-17T12:37:52.167Z,3.83
2022-08-17T12:40:58.036Z,4.40
2022-08-17T12:44:04.326Z,3.80
2022-08-17T12:47:21.900Z,5.20
2022-08-17T12:50:28.558Z,5.07
2022-08-17T12:53:35.922Z,3.72
2022-08-17T12:56:38.230Z,3.90
2022-08-17T12:59:44.039Z,4.70
2022-08-17T13:02:59.650Z,5.07
2022-08-17T13:06:04.020Z,3.72
2022-08-17T13:09:15.613Z,3.83
2022-08-17T13:12:30.344Z,3.40
2022-08-17T13:15:44.824Z,3.47
2022-08-17T13:19:05.091Z,2.88
2022-08-17T13:22:11.439Z,3.30
2022-08-17T13:25:16.974Z,3.92
2022-08-17T13:28:30.618Z,2.58
2022-08-17T13:31:42.899Z,3.55
2022-08-17T13:35:14.993Z,3.05
2022-08-17T13:38:43.960Z,3.28
2022-08-17T13:41:46.941Z,3.92
2022-08-17T13:44:50.119Z,2.55
2022-08-17T13:48:29.096Z,3.42
2022-08-17T13:51:35.724Z,2.78
2022-08-17T13:54:38.393Z,3.17
2022-08-17T13:57:49.960Z,3.35
2022-08-17T14:01:34.131Z,3.03
2022-08-17T14:04:39.913Z,2.88
2022-08-17T14:07:42.022Z,4.43
2022-08-17T14:10:45.846Z,3.72
2022-08-17T14:13:47.953Z,2.78
2022-08-17T14:16:51.144Z,3.08
2022-08-17T14:19:53.237Z,3.25
2022-08-17T14:22:55.960Z,2.85
2022-08-17T14:25:58.015Z,3.38
2022-08-17T14:29:00.109Z,2.97
2022-08-17T14:32:12.025Z,3.58
2022-08-17T14:35:15.777Z,3.35
2022-08-17T14:38:18.851Z,2.65
2022-08-17T14:41:23.546Z,3.03
2022-08-17T14:44:25.746Z,3.45
2022-08-17T14:47:27.845Z,2.70
2022-08-17T14:50:29.987Z,3.47
2022-08-17T14:53:33.779Z,2.90
2022-08-17T14:56:38.057Z,2.95
2022-08-17T14:59:40.526Z,4.05
2022-08-17T15:02:46.002Z,3.30
2022-08-17T15:05:48.703Z,3.30
2022-08-17T15:08:51.467Z,3.55
2022-08-17T15:11:54.076Z,3.28
2022-08-17T15:14:57.161Z,3.63
2022-08-17T15:18:00.016Z,3.45
2022-08-17T15:21:06.445Z,2.95
2022-08-17T15:24:09.329Z,3.20
2022-08-17T15:27:11.593Z,4.55
2022-08-17T15:30:14.117Z,2.80
2022-08-17T15:33:29.504Z,4.72
2022-08-17T15:36:32.846Z,3.60
2022-08-17T15:39:35.003Z,4.78
2022-08-17T15:42:38.010Z,4.10
2022-08-17T15:45:40.893Z,3.28
2022-08-17T15:48:45.116Z,4.43
2022-08-17T15:51:49.607Z,4.35
2022-08-17T15:54:58.022Z,4.18
2022-08-17T15:58:00.918Z,3.90
2022-08-17T16:01:14.236Z,4.65
2022-08-17T16:04:30.106Z,5.15
2022-08-17T16:07:33.176Z,3.97
2022-08-17T16:10:36.236Z,4.55
2022-08-17T16:13:39.896Z,3.40
2022-08-17T16:16:42.085Z,3.20
2022-08-17T16:19:44.876Z,3.13
2022-08-17T16:22:47.218Z,3.63
2022-08-17T16:25:53.517Z,4.15
2022-08-17T16:28:57.643Z,3.70
2022-08-17T16:32:08.828Z,3.70
2022-08-17T16:35:12.603Z,3.67
2022-08-17T16:38:14.626Z,4.03
2022-08-17T16:41:37.044Z,3.95
2022-08-17T16:44:39.068Z,3.92
2022-08-17T16:47:42.082Z,4.30
2022-08-17T16:50:58.613Z,4.38
2022-08-17T16:54:07.363Z,5.13
2022-08-17T16:57:11.472Z,4.50
2022-08-17T17:00:16.337Z,4.10
2022-08-17T17:03:24.914Z,4.30
2022-08-17T17:07:12.203Z,4.07
2022-08-17T17:10:20.031Z,3.75
2022-08-17T17:13:49.768Z,3.90
2022-08-17T17:17:01.838Z,4.28
2022-08-17T17:20:18.150Z,3.70
2022-08-17T17:23:23.237Z,3.97
2022-08-17T17:27:09.917Z,3.70
2022-08-17T17:30:39.305Z,3.80
2022-08-17T17:33:55.925Z,3.55
2022-08-17T17:37:05.888Z,4.43
2022-08-17T17:40:16.831Z,3.97
2022-08-17T17:43:40.021Z,4.05
2022-08-17T17:46:48.768Z,5.72
2022-08-17T17:49:51.062Z,4.57
2022-08-17T17:53:04.445Z,3.60
2022-08-17T17:56:42.894Z,3.55
2022-08-17T18:00:28.730Z,4.50
2022-08-17T18:04:20.341Z,3.70
2022-08-17T18:07:35.079Z,4.18
2022-08-17T18:10:51.244Z,3.72
2022-08-17T18:14:21.758Z,4.05
2022-08-17T18:17:24.413Z,3.60
2022-08-17T18:20:35.979Z,4.18
2022-08-17T18:23:51.894Z,3.40
2022-08-17T18:26:56.894Z,3.28
2022-08-17T18:30:19.646Z,3.30
2022-08-17T18:33:26.496Z,3.45
2022-08-17T18:36:31.984Z,3.10
2022-08-17T18:39:35.449Z,3.40
2022-08-17T18:42:38.932Z,3.60
2022-08-17T18:45:49.814Z,3.90
2022-08-17T18:48:59.232Z,3.78
2022-08-17T18:52:07.764Z,4.32
2022-08-17T18:58:25.704Z,3.70
2022-08-17T19:01:52.393Z,3.50
2022-08-17T19:04:59.476Z,4.38
2022-08-17T19:08:29.622Z,4.00
2022-08-17T19:11:35.918Z,3.97
2022-08-17T19:14:38.437Z,4.28
2022-08-17T19:17:53.485Z,4.65
2022-08-17T19:21:11.249Z,4.10
2022-08-17T19:24:19.819Z,4.57
2022-08-17T19:27:41.655Z,4.30
2022-08-17T19:30:48.706Z,3.95
2022-08-17T19:33:51.243Z,4.30
2022-08-17T19:37:09.140Z,4.45
2022-08-17T19:40:52.342Z,4.50
2022-08-17T19:44:07.211Z,5.53
2022-08-17T19:47:43.802Z,4.03
2022-08-17T19:51:08.118Z,3.72
2022-08-17T19:54:35.942Z,4.03
2022-08-17T19:57:59.429Z,3.80
2022-08-17T20:01:01.940Z,4.60
2022-08-17T20:04:32.410Z,4.32
2022-08-17T20:07:54.288Z,4.55
2022-08-17T20:11:09.241Z,4.75
2022-08-17T20:14:22.327Z,4.82
2022-08-17T20:17:29.652Z,5.15
2022-08-17T20:20:59.549Z,4.88
2022-08-17T20:24:21.499Z,4.25
2022-08-17T20:27:31.769Z,4.97
2022-08-17T20:30:40.227Z,5.55
2022-08-17T20:33:42.407Z,4.68
2022-08-17T20:37:04.798Z,4.57
2022-08-17T20:40:10.011Z,4.80
2022-08-17T20:43:34.158Z,4.75
2022-08-17T20:46:36.169Z,5.13
2022-08-17T20:49:44.711Z,5.15
2022-08-17T20:52:54.242Z,4.60
2022-08-17T20:55:56.364Z,4.50
2022-08-17T20:59:00.773Z,4.85
2022-08-17T21:02:12.463Z,4.90
2022-08-17T21:05:30.048Z,5.80
2022-08-17T21:08:45.714Z,4.85
2022-08-17T21:12:05.227Z,4.78
2022-08-17T21:15:43.871Z,4.75
2022-08-17T21:18:59.815Z,4.60
2022-08-17T21:22:20.190Z,5.47
2022-08-17T21:25:32.579Z,5.50
2022-08-17T21:29:00.359Z,5.18
2022-08-17T21:32:03.292Z,4.73
2022-08-17T21:35:11.292Z,5.25
2022-08-17T21:38:15.589Z,5.43
2022-08-17T21:41:28.616Z,6.10
2022-08-17T21:44:48.339Z,6.40
2022-08-17T21:48:09.787Z,5.43
2022-08-17T21:51:18.245Z,6.70
2022-08-17T21:54:40.604Z,6.28
2022-08-17T21:57:53.016Z,7.03
2022-08-17T22:01:26.506Z,7.32
2022-08-17T22:04:41.647Z,7.68
2022-08-17T22:07:50.978Z,6.60
2022-08-17T22:11:01.776Z,5.82
2022-08-17T22:14:17.498Z,6.25
2022-08-17T22:17:26.135Z,6.68
2022-08-17T22:20:28.508Z,6.38
2022-08-17T22:23:51.395Z,6.18
2022-08-17T22:27:00.346Z,6.78
2022-08-17T22:30:33.012Z,6.93
2022-08-17T22:33:48.399Z,7.00
2022-08-17T22:37:21.213Z,6.70
2022-08-17T22:40:32.636Z,7.03
2022-08-17T22:43:38.622Z,6.47
2022-08-17T22:46:51.064Z,6.82
2022-08-17T22:49:58.038Z,7.20
2022-08-17T22:53:22.603Z,7.22
2022-08-17T22:56:43.912Z,7.35
2022-08-17T22:59:55.829Z,7.85
2022-08-17T23:03:12.436Z,6.45
2022-08-17T23:06:14.730Z,6.38
2022-08-17T23:09:16.851Z,7.40
2022-08-17T23:12:26.505Z,8.25
2022-08-17T23:15:34.129Z,7.18
2022-08-17T23:18:37.435Z,8.10
2022-08-17T23:21:39.866Z,7.53
2022-08-17T23:24:45.601Z,7.40
2022-08-17T23:27:50.869Z,7.07
2022-08-17T23:30:53.283Z,9.32
2022-08-17T23:33:55.651Z,9.90
2022-08-17T23:36:57.928Z,8.60
2022-08-17T23:40:00.366Z,8.00
2022-08-17T23:43:08.490Z,10.00
2022-08-17T23:46:25.977Z,8.20
2022-08-17T23:49:28.858Z,8.13
2022-08-17T23:52:31.983Z,8.82
2022-08-17T23:55:34.866Z,7.95
2022-08-17T23:58:38.623Z,8.27
